Time;durP1;ratioP1;P1;durP2;ratioP2;P2;SDS_P1;SDS_P2;PMS_P1;PMS_P2;Temp;Humidity;BMP_temperature;BMP_pressure;BME280_temperature;BME280_humidity;BME280_pressure;Samples;Min_cycle;Max_cycle;Signal;HPM_P1;HPM_P2
2022/09/12 00:00:31;;;;;;;;;;;13.90;99.90;;;;;;4212619;28;20023;-58
2022/09/12 00:02:33;;;;;;;;;;;14.00;99.90;;;;;;4212323;28;20376;-58
2022/09/12 00:04:35;;;;;;;;;;;14.10;99.90;;;;;;4215521;28;20338;-58
2022/09/12 00:06:37;;;;;;;;;;;14.10;99.90;;;;;;4214409;28;19934;-58
2022/09/12 00:08:38;;;;;;;;;;;14.10;99.90;;;;;;4215466;28;20383;-58
2022/09/12 00:10:41;;;;;;;;;;;14.20;99.90;;;;;;4215742;28;19924;-58
2022/09/12 00:12:43;;;;;;;;;;;14.20;99.90;;;;;;4215753;28;19928;-58
2022/09/12 00:14:45;;;;;;;;;;;14.20;99.90;;;;;;4215600;28;19951;-58
2022/09/12 00:16:47;;;;;;;;;;;14.30;99.90;;;;;;4215581;28;19931;-58
2022/09/12 00:18:50;;;;;;;;;;;14.20;99.90;;;;;;4215684;28;20274;-57
2022/09/12 00:20:52;;;;;;;;;;;14.20;99.90;;;;;;4215535;28;19928;-58
2022/09/12 00:22:53;;;;;;;;;;;14.20;99.90;;;;;;4215630;28;19924;-58
2022/09/12 00:24:55;;;;;;;;;;;14.10;99.90;;;;;;4215669;28;19935;-58
2022/09/12 00:26:57;;;;;;;;;;;14.00;99.90;;;;;;4215298;28;19924;-58
2022/09/12 00:28:59;;;;;;;;;;;14.10;99.90;;;;;;4223511;28;20311;-58
2022/09/12 00:31:05;;;;;;;;;;;14.10;99.90;;;;;;4218998;28;20226;-57
2022/09/12 00:33:07;;;;;;;;;;;14.00;99.90;;;;;;4200719;28;19928;-58
2022/09/12 00:35:09;;;;;;;;;;;13.80;99.90;;;;;;4215223;28;20287;-58
2022/09/12 00:37:11;;;;;;;;;;;13.70;99.90;;;;;;4215341;28;20462;-58
2022/09/12 00:39:16;;;;;;;;;;;13.60;99.90;;;;;;4214025;28;19930;-58
2022/09/12 00:41:20;;;;;;;;;;;13.60;99.90;;;;;;4198827;28;20455;-58
2022/09/12 00:43:38;;;;;;;;;;;13.70;99.90;;;;;;4206232;28;19931;-58
2022/09/12 00:45:41;;;;;;;;;;;13.50;99.90;;;;;;4215076;28;19924;-58
2022/09/12 00:47:43;;;;;;;;;;;13.50;99.90;;;;;;4214517;28;20357;-58
2022/09/12 00:49:51;;;;;;;;;;;13.50;99.90;;;;;;4215107;28;20423;-58
2022/09/12 00:52:13;;;;;;;;;;;13.60;99.90;;;;;;4215529;28;19925;-58
2022/09/12 00:54:24;;;;;;;;;;;13.60;99.90;;;;;;4198353;28;20095;-58
2022/09/12 00:56:26;;;;;;;;;;;13.70;99.90;;;;;;4208715;28;20069;-58
2022/09/12 00:58:31;;;;;;;;;;;13.70;99.90;;;;;;4213960;28;20239;-58
2022/09/12 01:00:32;;;;;;;;;;;13.60;99.90;;;;;;4198344;28;19932;-57
2022/09/12 01:02:34;;;;;;;;;;;13.50;99.90;;;;;;4206907;28;20324;-58
2022/09/12 01:04:37;;;;;;;;;;;13.40;99.90;;;;;;4214703;28;20392;-58
2022/09/12 01:06:41;;;;;;;;;;;13.40;99.90;;;;;;4214724;28;20659;-58
2022/09/12 01:08:43;;;;;;;;;;;13.40;99.90;;;;;;4214936;28;19935;-58
2022/09/12 01:10:45;;;;;;;;;;;13.30;99.90;;;;;;4214602;28;19973;-58
2022/09/12 01:12:47;;;;;;;;;;;13.30;99.90;;;;;;4215024;28;19978;-58
2022/09/12 01:14:49;;;;;;;;;;;13.30;99.90;;;;;;4209127;28;19928;-58
2022/09/12 01:16:51;;;;;;;;;;;13.30;99.90;;;;;;4198208;28;19951;-58
2022/09/12 01:18:59;;;;;;;;;;;13.20;99.90;;;;;;4209369;28;19924;-58
2022/09/12 01:21:13;;;;;;;;;;;13.20;99.90;;;;;;4214472;28;19924;-58
2022/09/12 01:23:31;;;;;;;;;;;13.10;99.90;;;;;;4214595;28;20372;-58
2022/09/12 01:25:43;;;;;;;;;;;13.10;99.90;;;;;;4225164;28;19924;-57
2022/09/12 01:28:08;;;;;;;;;;;13.10;99.90;;;;;;4225537;28;19924;-57
2022/09/12 01:30:17;;;;;;;;;;;13.10;99.90;;;;;;4208610;28;20023;-57
2022/09/12 01:32:34;;;;;;;;;;;13.10;99.90;;;;;;4197832;28;19932;-58
2022/09/12 01:34:40;;;;;;;;;;;13.20;99.90;;;;;;4205584;28;19934;-56
2022/09/12 01:36:49;;;;;;;;;;;13.20;99.90;;;;;;4214208;27;19931;-58
2022/09/12 01:38:58;;;;;;;;;;;13.20;99.90;;;;;;4214483;28;19925;-58
2022/09/12 01:40:59;;;;;;;;;;;13.30;99.90;;;;;;4214167;28;19970;-58
2022/09/12 01:43:04;;;;;;;;;;;13.20;99.90;;;;;;4214333;28;19928;-57
2022/09/12 01:45:18;;;;;;;;;;;13.10;99.90;;;;;;4214383;28;19934;-58
2022/09/12 01:47:26;;;;;;;;;;;13.10;99.90;;;;;;4213472;28;19931;-57
2022/09/12 01:49:32;;;;;;;;;;;13.00;99.90;;;;;;4214146;28;19924;-58
2022/09/12 01:51:37;;;;;;;;;;;13.00;99.90;;;;;;4214120;28;19931;-57
2022/09/12 01:53:41;;;;;;;;;;;13.00;99.90;;;;;;4214081;28;19924;-58
2022/09/12 01:55:55;;;;;;;;;;;13.00;99.90;;;;;;4214003;28;20376;-58
2022/09/12 01:57:57;;;;;;;;;;;13.00;99.90;;;;;;4197581;28;19978;-57
2022/09/12 02:00:03;;;;;;;;;;;13.00;99.90;;;;;;4204397;28;20022;-57
2022/09/12 02:02:30;;;;;;;;;;;13.10;99.90;;;;;;4197276;28;19932;-58
2022/09/12 02:04:39;;;;;;;;;;;13.00;99.90;;;;;;4195988;28;19925;-57
2022/09/12 02:06:40;;;;;;;;;;;13.10;99.90;;;;;;4207920;28;19924;-58
2022/09/12 02:08:47;;;;;;;;;;;13.10;99.90;;;;;;4213759;28;19934;-58
2022/09/12 02:10:54;;;;;;;;;;;13.10;99.90;;;;;;4214252;28;19928;-57
2022/09/12 02:13:02;;;;;;;;;;;13.00;99.90;;;;;;4213454;28;19928;-57
2022/09/12 02:15:07;;;;;;;;;;;13.00;99.90;;;;;;4213596;28;20399;-56
2022/09/12 02:17:14;;;;;;;;;;;12.80;99.90;;;;;;4212849;28;19970;-57
2022/09/12 02:19:19;;;;;;;;;;;12.90;99.90;;;;;;4213706;28;19963;-57
2022/09/12 02:21:22;;;;;;;;;;;12.80;99.90;;;;;;4220082;28;19976;-57
2022/09/12 02:23:26;;;;;;;;;;;12.70;99.90;;;;;;4213714;28;19925;-57
2022/09/12 02:25:29;;;;;;;;;;;12.70;99.90;;;;;;4212956;28;19924;-57
2022/09/12 02:27:39;;;;;;;;;;;12.70;99.90;;;;;;4213947;28;19969;-57
2022/09/12 02:29:43;;;;;;;;;;;12.80;99.90;;;;;;4213524;28;19928;-57
2022/09/12 02:31:46;;;;;;;;;;;12.90;99.90;;;;;;4213848;28;19931;-57
2022/09/12 02:34:15;;;;;;;;;;;12.90;99.90;;;;;;4213038;28;19924;-57
2022/09/12 02:36:35;;;;;;;;;;;12.80;99.90;;;;;;4213433;28;19935;-57
2022/09/12 02:38:44;;;;;;;;;;;12.80;99.90;;;;;;4213326;28;19924;-57
2022/09/12 02:40:46;;;;;;;;;;;12.60;99.90;;;;;;4213228;28;20272;-57
2022/09/12 02:42:48;;;;;;;;;;;12.50;99.90;;;;;;4213386;28;19928;-57
2022/09/12 02:44:51;;;;;;;;;;;12.50;99.90;;;;;;4213551;28;19982;-56
2022/09/12 02:46:55;;;;;;;;;;;12.40;99.90;;;;;;4212910;28;19924;-57
2022/09/12 02:48:57;;;;;;;;;;;12.50;99.90;;;;;;4213424;28;20023;-57
2022/09/12 02:50:59;;;;;;;;;;;12.40;99.90;;;;;;4213097;28;19924;-57
2022/09/12 02:53:03;;;;;;;;;;;12.30;99.90;;;;;;4213083;28;19977;-57
2022/09/12 02:55:06;;;;;;;;;;;12.20;99.90;;;;;;4213198;28;20346;-57
2022/09/12 02:57:15;;;;;;;;;;;12.20;99.90;;;;;;4212903;28;20337;-57
2022/09/12 02:59:22;;;;;;;;;;;12.20;99.90;;;;;;4213400;28;19973;-57
2022/09/12 03:02:02;;;;;;;;;;;12.10;99.90;;;;;;4212644;28;20391;-57
2022/09/12 03:04:12;;;;;;;;;;;12.10;99.90;;;;;;4177588;28;19991;-57
2022/09/12 03:06:21;;;;;;;;;;;12.10;99.90;;;;;;4177552;28;20412;-57
2022/09/12 03:08:30;;;;;;;;;;;12.00;99.90;;;;;;4177385;28;20418;-57
2022/09/12 03:10:41;;;;;;;;;;;12.00;99.90;;;;;;4177712;28;19924;-57
2022/09/12 03:12:43;;;;;;;;;;;12.00;99.90;;;;;;4177572;28;19928;-57
2022/09/12 03:15:00;;;;;;;;;;;12.00;99.90;;;;;;4177440;28;20528;-57
2022/09/12 03:17:02;;;;;;;;;;;12.10;99.90;;;;;;4179674;28;19925;-57
2022/09/12 03:19:22;;;;;;;;;;;12.20;99.90;;;;;;4193850;28;19951;-56
2022/09/12 03:21:32;;;;;;;;;;;12.20;99.90;;;;;;4176973;28;20015;-57
2022/09/12 03:23:50;;;;;;;;;;;12.30;99.90;;;;;;4193936;28;19931;-57
2022/09/12 03:25:55;;;;;;;;;;;12.20;99.90;;;;;;4177767;28;19925;-57
2022/09/12 03:27:59;;;;;;;;;;;12.30;99.90;;;;;;4177165;28;19933;-57
2022/09/12 03:30:05;;;;;;;;;;;12.30;99.90;;;;;;4177215;28;19932;-57
2022/09/12 03:32:07;;;;;;;;;;;12.20;99.90;;;;;;4162284;28;20023;-57
2022/09/12 03:34:11;;;;;;;;;;;12.20;99.90;;;;;;4160889;28;20351;-57
2022/09/12 03:36:24;;;;;;;;;;;12.20;99.90;;;;;;4195974;28;19931;-57
2022/09/12 03:38:25;;;;;;;;;;;12.20;99.90;;;;;;4195400;28;20022;-57
2022/09/12 03:40:27;;;;;;;;;;;12.20;99.90;;;;;;4195980;28;20387;-57
2022/09/12 03:42:29;;;;;;;;;;;12.20;99.90;;;;;;4195568;28;19932;-57
2022/09/12 03:44:31;;;;;;;;;;;12.10;99.90;;;;;;4196041;28;19931;-57
2022/09/12 03:46:33;;;;;;;;;;;11.90;99.90;;;;;;4196288;28;19983;-57
2022/09/12 03:48:35;;;;;;;;;;;11.90;99.90;;;;;;4212554;28;19932;-57
2022/09/12 03:50:37;;;;;;;;;;;11.90;99.90;;;;;;4212491;28;19935;-57
2022/09/12 03:52:39;;;;;;;;;;;11.80;99.90;;;;;;4212222;28;19924;-57
2022/09/12 03:54:41;;;;;;;;;;;11.80;99.90;;;;;;4212649;28;20015;-56
2022/09/12 03:56:43;;;;;;;;;;;11.80;99.90;;;;;;4212256;28;20390;-57
2022/09/12 03:58:44;;;;;;;;;;;11.80;99.90;;;;;;4212709;28;20372;-57
2022/09/12 04:00:46;;;;;;;;;;;11.80;99.90;;;;;;4212192;28;19928;-57
2022/09/12 04:02:52;;;;;;;;;;;11.70;99.90;;;;;;4212345;28;20341;-56
2022/09/12 04:04:54;;;;;;;;;;;11.70;99.90;;;;;;4212522;28;19924;-57
2022/09/12 04:06:56;;;;;;;;;;;11.70;99.90;;;;;;4212373;28;19928;-56
2022/09/12 04:08:58;;;;;;;;;;;11.60;99.90;;;;;;4212207;28;20413;-56
2022/09/12 04:11:03;;;;;;;;;;;11.50;99.90;;;;;;4212115;28;20029;-56
2022/09/12 04:13:05;;;;;;;;;;;11.40;99.90;;;;;;4212979;28;19931;-57
2022/09/12 04:15:08;;;;;;;;;;;11.40;99.90;;;;;;4229353;27;19934;-57
2022/09/12 04:17:09;;;;;;;;;;;11.30;99.90;;;;;;4228859;28;19958;-56
2022/09/12 04:19:12;;;;;;;;;;;11.30;99.90;;;;;;4229148;28;19934;-56
2022/09/12 04:21:15;;;;;;;;;;;11.30;99.90;;;;;;4229106;27;20375;-57
2022/09/12 04:23:17;;;;;;;;;;;11.40;99.90;;;;;;4217187;28;19949;-56
2022/09/12 04:25:19;;;;;;;;;;;11.40;99.90;;;;;;4202003;28;20357;-56
2022/09/12 04:27:20;;;;;;;;;;;11.50;99.90;;;;;;4211811;28;20308;-57
2022/09/12 04:29:23;;;;;;;;;;;11.50;99.90;;;;;;4196252;28;20399;-57
2022/09/12 04:31:24;;;;;;;;;;;11.60;99.90;;;;;;4209369;28;20462;-57
2022/09/12 04:33:26;;;;;;;;;;;11.60;99.90;;;;;;4211919;28;19930;-57
2022/09/12 04:35:28;;;;;;;;;;;11.60;99.90;;;;;;4198960;28;19928;-57
2022/09/12 04:37:30;;;;;;;;;;;11.50;99.90;;;;;;4206742;28;20470;-56
2022/09/12 04:39:32;;;;;;;;;;;11.30;99.90;;;;;;4210510;28;20376;-57
2022/09/12 04:41:35;;;;;;;;;;;11.30;99.90;;;;;;4211955;28;19959;-57
2022/09/12 04:43:37;;;;;;;;;;;11.30;99.90;;;;;;4212013;28;19931;-56
2022/09/12 04:45:39;;;;;;;;;;;11.20;99.90;;;;;;4210749;28;19940;-57
2022/09/12 04:47:40;;;;;;;;;;;11.10;99.90;;;;;;4203230;28;20018;-57
2022/09/12 04:49:42;;;;;;;;;;;11.10;99.90;;;;;;4213444;28;19928;-56
2022/09/12 04:51:45;;;;;;;;;;;11.20;99.90;;;;;;4215289;28;19981;-57
2022/09/12 04:53:47;;;;;;;;;;;11.40;99.90;;;;;;4214895;28;19967;-56
2022/09/12 04:55:49;;;;;;;;;;;11.40;99.90;;;;;;4214846;28;20388;-56
2022/09/12 04:57:51;;;;;;;;;;;11.40;99.90;;;;;;4215144;28;20027;-57
2022/09/12 04:59:53;;;;;;;;;;;11.50;99.90;;;;;;4214487;28;19931;-57
2022/09/12 05:01:55;;;;;;;;;;;11.60;99.90;;;;;;4214750;28;19928;-57
2022/09/12 05:03:58;;;;;;;;;;;11.60;99.90;;;;;;4215098;28;20022;-57
2022/09/12 05:06:01;;;;;;;;;;;11.50;99.90;;;;;;4214373;28;20417;-57
2022/09/12 05:08:03;;;;;;;;;;;11.40;99.90;;;;;;4214699;28;19924;-56
2022/09/12 05:10:05;;;;;;;;;;;11.20;99.90;;;;;;4221684;28;19928;-56
2022/09/12 05:12:08;;;;;;;;;;;11.10;99.90;;;;;;4223299;28;19985;-56
2022/09/12 05:14:10;;;;;;;;;;;11.10;99.90;;;;;;4214694;28;19924;-57
2022/09/12 05:16:14;;;;;;;;;;;11.10;99.90;;;;;;4214453;28;19935;-56
2022/09/12 05:18:15;;;;;;;;;;;11.10;99.90;;;;;;4208537;28;19970;-59
2022/09/12 05:20:18;;;;;;;;;;;11.10;99.90;;;;;;4197539;28;19932;-59
2022/09/12 05:22:20;;;;;;;;;;;11.10;99.90;;;;;;4210374;28;20323;-59
2022/09/12 05:24:22;;;;;;;;;;;11.00;99.90;;;;;;4214385;28;20303;-59
2022/09/12 05:26:24;;;;;;;;;;;11.00;99.90;;;;;;4214451;28;20448;-59
2022/09/12 05:28:30;;;;;;;;;;;11.10;99.90;;;;;;4213706;28;20367;-59
2022/09/12 05:30:32;;;;;;;;;;;11.10;99.90;;;;;;4214180;28;19924;-59
2022/09/12 05:32:34;;;;;;;;;;;11.00;99.90;;;;;;4214465;28;20014;-59
2022/09/12 05:34:36;;;;;;;;;;;11.10;99.90;;;;;;4214046;28;19935;-59
2022/09/12 05:36:38;;;;;;;;;;;11.10;99.90;;;;;;4214507;28;19932;-58
2022/09/12 05:38:40;;;;;;;;;;;11.10;99.90;;;;;;4197926;28;19925;-57
2022/09/12 05:40:42;;;;;;;;;;;11.10;99.90;;;;;;4204256;28;19928;-58
2022/09/12 05:42:44;;;;;;;;;;;11.10;99.90;;;;;;4214231;28;19974;-59
2022/09/12 05:44:46;;;;;;;;;;;11.10;99.90;;;;;;4214282;28;20407;-59
2022/09/12 05:46:50;;;;;;;;;;;11.10;99.90;;;;;;4213558;28;20299;-59
2022/09/12 05:48:53;;;;;;;;;;;11.20;99.90;;;;;;4213983;28;19966;-59
2022/09/12 05:51:05;;;;;;;;;;;11.40;99.90;;;;;;4213898;28;19930;-59
2022/09/12 05:53:07;;;;;;;;;;;11.40;99.90;;;;;;4213872;28;19928;-58
2022/09/12 05:55:10;;;;;;;;;;;11.50;99.90;;;;;;4214015;28;19924;-59
2022/09/12 05:57:12;;;;;;;;;;;11.50;99.90;;;;;;4213919;28;19947;-57
2022/09/12 05:59:15;;;;;;;;;;;11.70;99.90;;;;;;4213865;28;19932;-59
2022/09/12 06:01:18;;;;;;;;;;;11.80;99.90;;;;;;4202848;28;19928;-59
2022/09/12 06:03:20;;;;;;;;;;;11.90;99.90;;;;;;4213231;28;19928;-59
2022/09/12 06:05:22;;;;;;;;;;;12.00;99.90;;;;;;4213945;28;19982;-59
2022/09/12 06:07:23;;;;;;;;;;;12.00;99.90;;;;;;4219682;28;19928;-59
2022/09/12 06:09:26;;;;;;;;;;;12.10;99.90;;;;;;4212942;28;20113;-59
2022/09/12 06:11:30;;;;;;;;;;;12.10;99.90;;;;;;4213458;28;19923;-59
2022/09/12 06:13:33;;;;;;;;;;;12.10;99.90;;;;;;4213589;28;19928;-59
2022/09/12 06:15:35;;;;;;;;;;;12.20;99.90;;;;;;4213549;28;20291;-59
2022/09/12 06:17:36;;;;;;;;;;;12.30;99.90;;;;;;4213361;28;19967;-59
2022/09/12 06:19:38;;;;;;;;;;;12.40;99.90;;;;;;4213607;28;19934;-58
2022/09/12 06:21:40;;;;;;;;;;;12.40;99.90;;;;;;4213204;28;20322;-59
2022/09/12 06:23:43;;;;;;;;;;;12.50;99.90;;;;;;4213809;28;20085;-60
2022/09/12 06:25:46;;;;;;;;;;;12.60;99.90;;;;;;4213212;28;20042;-58
2022/09/12 06:27:51;;;;;;;;;;;12.70;99.90;;;;;;4213514;28;19927;-59
2022/09/12 06:29:53;;;;;;;;;;;12.80;99.90;;;;;;4213240;28;19928;-59
2022/09/12 06:31:55;;;;;;;;;;;12.90;99.90;;;;;;4213290;28;20027;-59
2022/09/12 06:33:59;;;;;;;;;;;12.90;99.90;;;;;;4211158;28;20022;-59
2022/09/12 06:36:03;;;;;;;;;;;13.00;99.90;;;;;;4213209;28;20410;-58
2022/09/12 06:38:08;;;;;;;;;;;13.10;99.90;;;;;;4213487;28;19932;-59
2022/09/12 06:40:11;;;;;;;;;;;13.20;99.90;;;;;;4213005;28;20449;-60
2022/09/12 06:42:13;;;;;;;;;;;13.30;99.90;;;;;;4212951;28;20372;-59
2022/09/12 06:44:16;;;;;;;;;;;13.40;99.90;;;;;;4212832;28;20433;-59
2022/09/12 06:46:18;;;;;;;;;;;13.40;99.90;;;;;;4213034;28;19928;-59
2022/09/12 06:48:20;;;;;;;;;;;13.50;99.90;;;;;;4212666;28;19947;-58
2022/09/12 06:50:22;;;;;;;;;;;13.60;99.90;;;;;;4213160;28;20183;-59
2022/09/12 06:52:24;;;;;;;;;;;13.80;99.90;;;;;;4213061;28;20396;-59
2022/09/12 06:54:26;;;;;;;;;;;13.90;99.90;;;;;;4212636;28;20311;-59
2022/09/12 06:56:28;;;;;;;;;;;14.00;99.90;;;;;;4213027;28;19936;-59
2022/09/12 06:58:30;;;;;;;;;;;14.10;99.90;;;;;;4212863;28;20503;-59
2022/09/12 07:00:32;;;;;;;;;;;14.20;99.90;;;;;;4205190;28;20299;-59
2022/09/12 07:02:34;;;;;;;;;;;14.30;99.90;;;;;;4209503;28;19973;-60
2022/09/12 07:04:36;;;;;;;;;;;14.40;99.90;;;;;;4214848;28;20447;-59
2022/09/12 07:06:39;;;;;;;;;;;14.50;99.90;;;;;;4212633;28;19935;-59
2022/09/12 07:08:41;;;;;;;;;;;14.50;99.90;;;;;;4212860;28;19977;-59
2022/09/12 07:10:43;;;;;;;;;;;14.70;99.90;;;;;;4212603;28;19928;-59
2022/09/12 07:12:45;;;;;;;;;;;14.80;99.90;;;;;;4211975;28;20019;-59
2022/09/12 07:14:47;;;;;;;;;;;14.90;99.90;;;;;;4212499;28;19947;-59
2022/09/12 07:16:49;;;;;;;;;;;15.00;99.90;;;;;;4212555;28;20026;-59
2022/09/12 07:18:52;;;;;;;;;;;15.20;99.90;;;;;;4212568;28;20007;-59
2022/09/12 07:20:54;;;;;;;;;;;15.40;99.90;;;;;;4213030;28;19928;-58
2022/09/12 07:22:56;;;;;;;;;;;15.60;99.90;;;;;;4212535;28;19958;-59
2022/09/12 07:24:58;;;;;;;;;;;15.70;99.90;;;;;;4212780;28;20464;-60
2022/09/12 07:27:00;;;;;;;;;;;15.80;99.90;;;;;;4212460;28;19924;-60
2022/09/12 07:29:02;;;;;;;;;;;15.90;99.90;;;;;;4210837;28;20039;-60
2022/09/12 07:31:25;;;;;;;;;;;16.00;99.90;;;;;;4212369;28;19935;-60
2022/09/12 07:33:27;;;;;;;;;;;16.20;99.90;;;;;;4212438;28;20411;-60
2022/09/12 07:35:31;;;;;;;;;;;16.30;99.90;;;;;;4211682;28;20010;-60
2022/09/12 07:37:33;;;;;;;;;;;16.40;99.90;;;;;;4213014;28;19928;-60
2022/09/12 07:39:36;;;;;;;;;;;16.50;99.90;;;;;;4211931;28;20018;-60
2022/09/12 07:41:38;;;;;;;;;;;16.60;99.90;;;;;;4212370;28;19938;-60
2022/09/12 07:43:40;;;;;;;;;;;16.70;99.90;;;;;;4210881;28;20040;-59
2022/09/12 07:45:42;;;;;;;;;;;16.80;99.90;;;;;;4212160;28;19931;-59
2022/09/12 07:47:44;;;;;;;;;;;17.00;99.90;;;;;;4211515;28;19928;-60
2022/09/12 07:49:47;;;;;;;;;;;17.20;99.90;;;;;;4212204;28;19924;-60
2022/09/12 07:51:49;;;;;;;;;;;17.30;99.90;;;;;;4212430;28;19928;-60
2022/09/12 07:53:51;;;;;;;;;;;17.40;99.90;;;;;;4210925;28;19950;-60
2022/09/12 07:55:56;;;;;;;;;;;17.60;99.90;;;;;;4195721;28;20380;-60
2022/09/12 07:57:58;;;;;;;;;;;17.80;99.90;;;;;;4203498;28;19936;-60
2022/09/12 08:00:00;;;;;;;;;;;18.00;99.90;;;;;;4217618;28;20059;-60
2022/09/12 08:02:02;;;;;;;;;;;18.10;99.90;;;;;;4204795;28;19924;-60
2022/09/12 08:04:05;;;;;;;;;;;18.20;99.90;;;;;;4206316;28;19924;-60
2022/09/12 08:06:08;;;;;;;;;;;18.60;99.90;;;;;;4211668;28;20026;-60
2022/09/12 08:08:10;;;;;;;;;;;18.90;99.90;;;;;;4211499;28;19935;-60
2022/09/12 08:10:12;;;;;;;;;;;19.10;99.90;;;;;;4204479;28;20368;-60
2022/09/12 08:12:15;;;;;;;;;;;19.30;99.90;;;;;;4201084;28;19943;-60
2022/09/12 08:14:17;;;;;;;;;;;19.50;99.90;;;;;;4207966;28;19953;-60
2022/09/12 08:16:20;;;;;;;;;;;19.60;99.90;;;;;;4197930;28;19932;-60
2022/09/12 08:18:22;;;;;;;;;;;19.60;99.90;;;;;;4210930;28;19924;-60
2022/09/12 08:20:24;;;;;;;;;;;19.80;99.90;;;;;;4211878;28;19961;-60
2022/09/12 08:22:29;;;;;;;;;;;20.20;99.90;;;;;;4210230;28;19939;-60
2022/09/12 08:24:31;;;;;;;;;;;20.30;99.90;;;;;;4213789;28;19980;-60
2022/09/12 08:26:33;;;;;;;;;;;20.50;99.90;;;;;;4215196;28;19928;-60
2022/09/12 08:28:36;;;;;;;;;;;20.30;99.90;;;;;;4214022;28;20371;-59
2022/09/12 08:30:37;;;;;;;;;;;20.40;99.90;;;;;;4206144;28;19938;-60
2022/09/12 08:32:39;;;;;;;;;;;20.70;99.90;;;;;;4207999;28;20341;-60
2022/09/12 08:34:41;;;;;;;;;;;20.80;99.90;;;;;;4206945;28;19931;-60
2022/09/12 08:36:44;;;;;;;;;;;20.90;99.90;;;;;;4214296;28;20358;-60
2022/09/12 08:38:47;;;;;;;;;;;21.10;99.90;;;;;;4212811;28;19968;-60
2022/09/12 08:40:54;;;;;;;;;;;21.00;99.90;;;;;;4204564;28;19934;-60
2022/09/12 08:43:09;;;;;;;;;;;21.00;99.90;;;;;;4205074;28;20031;-60
2022/09/12 08:45:30;;;;;;;;;;;21.10;99.90;;;;;;4203935;28;19935;-60
2022/09/12 08:47:38;;;;;;;;;;;21.20;99.90;;;;;;4207284;28;19985;-60
2022/09/12 08:49:59;;;;;;;;;;;21.40;99.90;;;;;;4214748;28;20429;-60
2022/09/12 08:52:13;;;;;;;;;;;21.60;99.90;;;;;;4214097;28;19923;-60
2022/09/12 08:54:20;;;;;;;;;;;21.70;99.90;;;;;;4208433;28;19970;-60
2022/09/12 08:56:23;;;;;;;;;;;22.00;99.90;;;;;;4202953;28;19968;-60
2022/09/12 08:58:35;;;;;;;;;;;22.10;99.90;;;;;;4208889;28;20027;-59
2022/09/12 09:00:42;;;;;;;;;;;22.20;99.90;;;;;;4208602;28;20314;-60
2022/09/12 09:03:00;;;;;;;;;;;22.30;99.90;;;;;;4211503;28;20204;-60
2022/09/12 09:05:05;;;;;;;;;;;22.50;99.90;;;;;;4214667;28;19950;-60
2022/09/12 09:07:25;;;;;;;;;;;22.90;99.90;;;;;;4214867;28;19934;-60
2022/09/12 09:09:40;;;;;;;;;;;22.80;99.90;;;;;;4198103;28;20441;-60
2022/09/12 09:11:51;;;;;;;;;;;22.90;99.90;;;;;;4210964;28;19931;-60
2022/09/12 09:16:24;;;;;;;;;;;23.20;99.90;;;;;;4212405;28;20034;-60
2022/09/12 09:18:28;;;;;;;;;;;23.50;99.90;;;;;;4213960;28;20019;-60
2022/09/12 09:20:36;;;;;;;;;;;23.60;99.90;;;;;;4214337;28;19959;-60
2022/09/12 09:22:48;;;;;;;;;;;23.80;99.90;;;;;;4214132;28;19924;-60
2022/09/12 09:24:53;;;;;;;;;;;24.10;99.90;;;;;;4214383;28;19928;-61
2022/09/12 09:27:04;;;;;;;;;;;24.20;99.50;;;;;;4208885;28;19940;-60
2022/09/12 09:29:17;;;;;;;;;;;24.30;99.40;;;;;;4202310;28;19974;-60
2022/09/12 09:31:21;;;;;;;;;;;24.70;99.40;;;;;;4214158;28;20088;-60
2022/09/12 09:33:27;;;;;;;;;;;25.10;99.90;;;;;;4214441;28;19948;-60
2022/09/12 09:35:39;;;;;;;;;;;25.20;98.70;;;;;;4211391;28;20297;-60
2022/09/12 09:37:42;;;;;;;;;;;25.20;99.70;;;;;;4213465;28;20652;-60
2022/09/12 09:39:44;;;;;;;;;;;25.50;99.10;;;;;;4212556;28;20643;-60
2022/09/12 09:42:06;;;;;;;;;;;25.70;98.30;;;;;;4214095;28;19924;-60
2022/09/12 09:44:08;;;;;;;;;;;25.60;95.90;;;;;;4205905;28;20443;-60
2022/09/12 09:46:10;;;;;;;;;;;25.50;96.30;;;;;;4204324;28;19935;-60
2022/09/12 09:48:15;;;;;;;;;;;25.70;94.30;;;;;;4205150;28;19924;-60
2022/09/12 09:50:18;;;;;;;;;;;25.70;97.90;;;;;;4211326;28;19924;-60
2022/09/12 09:52:23;;;;;;;;;;;25.90;95.80;;;;;;4218887;28;19932;-60
2022/09/12 09:54:30;;;;;;;;;;;25.90;93.60;;;;;;4213614;28;19970;-60
2022/09/12 09:56:33;;;;;;;;;;;26.00;93.10;;;;;;4208149;28;19928;-60
2022/09/12 09:58:36;;;;;;;;;;;26.10;92.60;;;;;;4202553;28;19980;-59
2022/09/12 10:00:38;;;;;;;;;;;26.30;93.40;;;;;;4206637;28;20367;-60
2022/09/12 10:02:40;;;;;;;;;;;26.30;90.30;;;;;;4210022;28;20288;-59
2022/09/12 10:04:52;;;;;;;;;;;26.60;87.60;;;;;;4197941;28;19928;-60
2022/09/12 10:06:58;;;;;;;;;;;26.30;88.40;;;;;;4213675;28;19928;-60
2022/09/12 10:09:06;;;;;;;;;;;26.70;87.80;;;;;;4213728;28;19924;-59
2022/09/12 10:11:14;;;;;;;;;;;26.90;83.80;;;;;;4208752;28;20011;-59
2022/09/12 10:13:32;;;;;;;;;;;26.60;83.90;;;;;;4213538;28;19989;-59
2022/09/12 10:15:33;;;;;;;;;;;26.70;84.50;;;;;;4211242;28;20410;-59
2022/09/12 10:17:41;;;;;;;;;;;27.10;82.30;;;;;;4198008;28;20018;-60
2022/09/12 10:19:43;;;;;;;;;;;27.00;75.20;;;;;;4211744;28;19928;-59
2022/09/12 10:21:54;;;;;;;;;;;27.00;77.70;;;;;;4207437;28;19932;-60
2022/09/12 10:24:17;;;;;;;;;;;26.80;79.20;;;;;;4213319;28;19959;-59
2022/09/12 10:26:20;;;;;;;;;;;27.00;80.00;;;;;;4201443;28;19928;-59
2022/09/12 10:28:42;;;;;;;;;;;27.30;82.90;;;;;;4213341;28;19978;-60
2022/09/12 10:30:50;;;;;;;;;;;27.50;79.50;;;;;;4203818;28;19971;-59
2022/09/12 10:32:55;;;;;;;;;;;27.50;75.40;;;;;;4208046;28;19950;-59
2022/09/12 10:34:59;;;;;;;;;;;27.40;80.60;;;;;;4212883;28;19935;-59
2022/09/12 10:37:04;;;;;;;;;;;27.70;77.10;;;;;;4213233;28;19973;-60
2022/09/12 10:39:06;;;;;;;;;;;27.20;76.90;;;;;;4211259;28;20330;-60
2022/09/12 10:41:09;;;;;;;;;;;27.00;81.00;;;;;;4211113;28;20342;-59
2022/09/12 10:43:16;;;;;;;;;;;27.40;78.00;;;;;;4211030;28;19928;-60
2022/09/12 10:45:23;;;;;;;;;;;27.90;80.40;;;;;;4205975;28;20392;-59
2022/09/12 10:47:29;;;;;;;;;;;28.60;81.40;;;;;;4211633;28;20062;-59
2022/09/12 10:49:37;;;;;;;;;;;28.00;75.60;;;;;;4209139;28;19946;-59
2022/09/12 10:51:38;;;;;;;;;;;27.40;74.10;;;;;;4212718;28;19963;-59
2022/09/12 10:53:42;;;;;;;;;;;27.40;75.90;;;;;;4213137;28;19925;-60
2022/09/12 10:56:03;;;;;;;;;;;27.20;74.80;;;;;;4213114;28;20352;-59
2022/09/12 10:58:14;;;;;;;;;;;27.40;77.60;;;;;;4212965;28;19924;-60
2022/09/12 11:00:19;;;;;;;;;;;27.40;76.90;;;;;;4212626;28;19935;-59
2022/09/12 11:02:20;;;;;;;;;;;27.30;76.70;;;;;;4212259;28;19928;-59
2022/09/12 11:04:28;;;;;;;;;;;27.50;77.30;;;;;;4213031;28;19924;-60
2022/09/12 11:06:46;;;;;;;;;;;27.40;78.40;;;;;;4210989;28;19928;-59
2022/09/12 11:08:48;;;;;;;;;;;27.70;78.20;;;;;;4212628;28;20469;-60
2022/09/12 11:10:56;;;;;;;;;;;27.40;76.30;;;;;;4212558;28;20448;-59
2022/09/12 11:13:10;;;;;;;;;;;27.20;74.70;;;;;;4212817;28;19928;-60
2022/09/12 11:15:23;;;;;;;;;;;27.60;76.90;;;;;;4211834;28;19924;-60
2022/09/12 11:17:25;;;;;;;;;;;27.80;77.70;;;;;;4212649;28;19928;-60
2022/09/12 11:19:30;;;;;;;;;;;28.00;75.00;;;;;;4202543;28;19928;-59
2022/09/12 11:21:45;;;;;;;;;;;28.30;76.70;;;;;;4199028;28;20450;-59
2022/09/12 11:24:03;;;;;;;;;;;28.40;74.80;;;;;;4212461;28;19932;-59
2022/09/12 11:26:21;;;;;;;;;;;28.60;75.40;;;;;;4212712;28;19928;-60
2022/09/12 11:28:49;;;;;;;;;;;28.00;72.90;;;;;;4212656;28;19924;-59
2022/09/12 11:31:00;;;;;;;;;;;27.60;72.90;;;;;;4208963;28;19928;-59
2022/09/12 11:33:04;;;;;;;;;;;27.50;73.20;;;;;;4211467;28;20337;-59
2022/09/12 11:35:15;;;;;;;;;;;27.40;73.00;;;;;;4211098;28;20022;-59
2022/09/12 11:37:21;;;;;;;;;;;27.70;73.60;;;;;;4196293;28;20379;-65
2022/09/12 11:39:32;;;;;;;;;;;27.60;72.00;;;;;;4195514;28;20023;-67
2022/09/12 11:41:38;;;;;;;;;;;28.20;73.70;;;;;;4195507;28;19991;-66
2022/09/12 11:43:42;;;;;;;;;;;28.20;72.70;;;;;;4206571;28;19939;-66
2022/09/12 11:45:44;;;;;;;;;;;28.10;72.10;;;;;;4229165;27;20043;-65
2022/09/12 11:47:54;;;;;;;;;;;28.00;72.60;;;;;;4217273;28;19928;-66
2022/09/12 11:49:56;;;;;;;;;;;28.20;71.20;;;;;;4212361;27;20318;-65
2022/09/12 11:52:18;;;;;;;;;;;28.30;74.00;;;;;;4212244;28;19931;-64
2022/09/12 11:54:36;;;;;;;;;;;28.30;71.90;;;;;;4212038;28;19936;-65
2022/09/12 11:56:41;;;;;;;;;;;28.30;73.60;;;;;;4203143;28;19931;-66
2022/09/12 11:58:51;;;;;;;;;;;28.10;74.80;;;;;;4194919;28;19924;-65
2022/09/12 12:00:55;;;;;;;;;;;28.30;72.30;;;;;;4195664;28;19932;-65
2022/09/12 12:03:15;;;;;;;;;;;28.20;73.10;;;;;;4195674;28;19929;-65
2022/09/12 12:05:27;;;;;;;;;;;28.70;72.60;;;;;;4195331;28;19962;-65
2022/09/12 12:07:49;;;;;;;;;;;28.60;75.00;;;;;;4195343;28;19963;-66
2022/09/12 12:09:51;;;;;;;;;;;29.00;74.60;;;;;;4195302;28;20585;-64
2022/09/12 12:11:56;;;;;;;;;;;28.90;72.40;;;;;;4195942;28;19969;-65